• °C
  • Pobieranie danych...
wx


SEKCJA WYDRUKÓW, pokaż »

METAR EPBY 271530Z 14004KT 4500 BR FEW003 OVC011 02/01 Q0996=

METAR EPGD 271530Z 26004KT 6000 BKN005 BKN018 02/01 Q0995 =

METAR EPKK 271530Z 12004KT 9999 BKN045 04/M01 Q0996 =

METAR EPKT 271530Z 25004KT 7000 -SN FEW005 SCT031 BKN045 02/M00 Q0996
=

METAR EPLB 271530Z 24006KT 9999 SCT017 01/01 Q0998 =

METAR EPLL 271530Z 18004KT 130V220 9000 OVC005 00/M01 Q0996 =

METAR EPML 271530Z AUTO 14004KT 9999 BKN024/// 04/01 Q0997=

METAR EPMO 271530Z 24009KT 5000 BR OVC008 01/01 Q0996 =

METAR EPPO 271530Z 12009KT 2800 BR OVC004 01/M00 Q0995 =

METAR EPRA 271530Z NIL=

METAR EPRZ 271530Z 19008KT 170V230 9999 BKN016 04/01 Q0998 =

METAR EPSC 271530Z 12006KT CAVOK 03/00 Q0994 =

METAR EPSY 271530Z 23005KT 9999 BKN011 01/00 Q0995=

METAR EPWA 271530Z 24007KT 9999 BKN010 02/00 Q0997 NOSIG=

METAR EPWR 271530Z 16010KT CAVOK 02/M01 Q0995 =

METAR EPZG 271530Z 10005KT 2200 BR NSC 01/01 Q0994 =
 METAR EPRZ
Lokalizacja:EPRZ Rzeszów Jasionka
Czas:15:30 UTC
Średni kierunek wiatru:190 °
Średnia prędkość wiatru:8 węzłów
Kierunek wiatru zmienia się od:170 °
Kierunek wiatru zmienia się do:230 °
Widzialność:10 km i więcej
Pierwsza warstwa chmur:5/8 do 7/8, wysokość podstawy 1600 FT
Temperatura powietrza:4 °C
Temperatura punktu rosy:1 °C
Ciśnienie QNH:998 hPa



Serwisy IMGW-PIB